Time;durP1;ratioP1;P1;durP2;ratioP2;P2;SDS_P1;SDS_P2;PMS_P1;PMS_P2;Temp;Humidity;BMP_temperature;BMP_pressure;BME280_temperature;BME280_humidity;BME280_pressure;Samples;Min_cycle;Max_cycle;Signal;HPM_P1;HPM_P2
2023/12/15 00:01:43;;;;;;;;;;;;;;;;;;5026413;28;19921;-46
2023/12/15 00:04:09;;;;;;;;;;;;;;;;;;5013895;28;19920;-46
2023/12/15 00:06:35;;;;;;;;;;;;;;;;;;5020599;28;19913;-46
2023/12/15 00:09:01;;;;;;;;;;;;;;;;;;5033160;28;19913;-45
2023/12/15 00:11:27;;;;;;;;;;;;;;;;;;5029439;28;20365;-47
2023/12/15 00:13:53;;;;;;;;;;;;;;;;;;5029068;28;19917;-46
2023/12/15 00:16:19;;;;;;;;;;;;;;;;;;5017632;28;19913;-46
2023/12/15 00:18:45;;;;;;;;;;;;;;;;;;5012810;28;19914;-47
2023/12/15 00:21:11;;;;;;;;;;;;;;;;;;5014871;28;20396;-45
2023/12/15 00:23:37;;;;;;;;;;;;;;;;;;5011861;28;20394;-45
2023/12/15 00:26:03;;;;;;;;;;;;;;;;;;4994199;28;19917;-45
2023/12/15 00:28:29;;;;;;;;;;;;;;;;;;4993093;28;19920;-47
2023/12/15 00:30:55;;;;;;;;;;;;;;;;;;5020431;28;20000;-45
2023/12/15 00:33:21;;;;;;;;;;;;;;;;;;5020748;28;19913;-46
2023/12/15 00:35:48;;;;;;;;;;;;;;;;;;5013790;28;19916;-45
2023/12/15 00:38:14;;;;;;;;;;;;;;;;;;5014265;28;19960;-46
2023/12/15 00:40:40;;;;;;;;;;;;;;;;;;5013441;28;20347;-47
2023/12/15 00:43:06;;;;;;;;;;;;;;;;;;5018860;28;19959;-45
2023/12/15 00:45:32;;;;;;;;;;;;;;;;;;5017112;28;19924;-46
2023/12/15 00:47:59;;;;;;;;;;;;;;;;;;5033055;28;20442;-45
2023/12/15 00:50:28;;;;;;;;;;;;;;;;;;5014419;28;19967;-46
2023/12/15 00:52:54;;;;;;;;;;;;;;;;;;5017896;28;19913;-46
2023/12/15 00:55:20;;;;;;;;;;;;;;;;;;5033105;28;19965;-46
2023/12/15 00:57:46;;;;;;;;;;;;;;;;;;5025145;28;19920;-45
2023/12/15 01:00:12;;;;;;;;;;;;;;;;;;5014097;28;20372;-45
2023/12/15 01:02:38;;;;;;;;;;;;;;;;;;5029557;28;19939;-45
2023/12/15 01:05:04;;;;;;;;;;;;;;;;;;5011922;28;19953;-47
2023/12/15 01:07:31;;;;;;;;;;;;;;;;;;5012904;28;19914;-45
2023/12/15 01:09:57;;;;;;;;;;;;;;;;;;5021471;28;19919;-45
2023/12/15 01:12:23;;;;;;;;;;;;;;;;;;5017983;28;20389;-46
2023/12/15 01:14:49;;;;;;;;;;;;;;;;;;5031564;28;19915;-45
2023/12/15 01:17:15;;;;;;;;;;;;;;;;;;5021126;28;20005;-45
2023/12/15 01:19:41;;;;;;;;;;;;;;;;;;5031719;28;19960;-45
2023/12/15 01:22:07;;;;;;;;;;;;;;;;;;5029330;28;19943;-47
2023/12/15 01:24:33;;;;;;;;;;;;;;;;;;5022305;28;19918;-46
2023/12/15 01:26:59;;;;;;;;;;;;;;;;;;5007907;28;19945;-45
2023/12/15 01:29:25;;;;;;;;;;;;;;;;;;5012499;28;19960;-45
2023/12/15 01:31:51;;;;;;;;;;;;;;;;;;5015377;28;19924;-46
2023/12/15 01:34:17;;;;;;;;;;;;;;;;;;5012544;28;19910;-46
2023/12/15 01:36:43;;;;;;;;;;;;;;;;;;5026310;28;20301;-45
2023/12/15 01:39:09;;;;;;;;;;;;;;;;;;5013616;28;19920;-45
2023/12/15 01:41:35;;;;;;;;;;;;;;;;;;5021165;28;19917;-46
2023/12/15 01:44:01;;;;;;;;;;;;;;;;;;5017592;28;19917;-45
2023/12/15 01:46:28;;;;;;;;;;;;;;;;;;5023405;28;19917;-45
2023/12/15 01:48:54;;;;;;;;;;;;;;;;;;5012996;28;19914;-47
2023/12/15 01:51:20;;;;;;;;;;;;;;;;;;5012619;28;20394;-46
2023/12/15 01:53:46;;;;;;;;;;;;;;;;;;5014535;28;19961;-46
2023/12/15 01:56:12;;;;;;;;;;;;;;;;;;5022010;28;19919;-45
2023/12/15 01:58:38;;;;;;;;;;;;;;;;;;5012527;28;20279;-45
2023/12/15 02:01:04;;;;;;;;;;;;;;;;;;5028472;28;20145;-46
2023/12/15 02:03:30;;;;;;;;;;;;;;;;;;5031428;28;20252;-45
2023/12/15 02:05:56;;;;;;;;;;;;;;;;;;5031012;28;20208;-47
2023/12/15 02:08:22;;;;;;;;;;;;;;;;;;5031161;28;19913;-46
2023/12/15 02:10:48;;;;;;;;;;;;;;;;;;5031065;28;19920;-46
2023/12/15 02:13:15;;;;;;;;;;;;;;;;;;5014027;28;19917;-46
2023/12/15 02:15:41;;;;;;;;;;;;;;;;;;5010085;28;19964;-48
2023/12/15 02:18:07;;;;;;;;;;;;;;;;;;5011374;28;19956;-45
2023/12/15 02:20:33;;;;;;;;;;;;;;;;;;5010941;28;19961;-46
2023/12/15 02:22:59;;;;;;;;;;;;;;;;;;5010771;28;19913;-46
2023/12/15 02:25:25;;;;;;;;;;;;;;;;;;5010400;28;19917;-45
2023/12/15 02:27:51;;;;;;;;;;;;;;;;;;5012222;28;19917;-46
2023/12/15 02:30:17;;;;;;;;;;;;;;;;;;5000738;28;19918;-45
2023/12/15 02:32:43;;;;;;;;;;;;;;;;;;4996295;28;19994;-46
2023/12/15 02:35:11;;;;;;;;;;;;;;;;;;4995071;28;19914;-45
2023/12/15 02:37:37;;;;;;;;;;;;;;;;;;4995171;28;20394;-46
2023/12/15 02:40:03;;;;;;;;;;;;;;;;;;5010041;28;20183;-45
2023/12/15 02:42:29;;;;;;;;;;;;;;;;;;5015435;28;20412;-46
2023/12/15 02:44:55;;;;;;;;;;;;;;;;;;5014582;28;19913;-46
2023/12/15 02:47:21;;;;;;;;;;;;;;;;;;5015673;28;20032;-46
2023/12/15 02:49:47;;;;;;;;;;;;;;;;;;5032788;28;19924;-45
2023/12/15 02:52:13;;;;;;;;;;;;;;;;;;5035240;28;19913;-46
2023/12/15 02:54:39;;;;;;;;;;;;;;;;;;5035431;28;20159;-45
2023/12/15 02:57:05;;;;;;;;;;;;;;;;;;5034193;28;19909;-45
2023/12/15 02:59:31;;;;;;;;;;;;;;;;;;5035282;28;19926;-45
2023/12/15 03:01:57;;;;;;;;;;;;;;;;;;5035172;28;19913;-46
2023/12/15 03:04:24;;;;;;;;;;;;;;;;;;5014157;28;19917;-46
2023/12/15 03:06:50;;;;;;;;;;;;;;;;;;5024173;28;19920;-46
2023/12/15 03:09:16;;;;;;;;;;;;;;;;;;5033660;28;19917;-46
2023/12/15 03:11:42;;;;;;;;;;;;;;;;;;5015949;28;19916;-46
2023/12/15 03:14:08;;;;;;;;;;;;;;;;;;5005856;28;19913;-46
2023/12/15 03:16:34;;;;;;;;;;;;;;;;;;5020348;28;19920;-47
2023/12/15 03:19:00;;;;;;;;;;;;;;;;;;5015091;28;19928;-46
2023/12/15 03:21:26;;;;;;;;;;;;;;;;;;5013724;28;19917;-46
2023/12/15 03:23:52;;;;;;;;;;;;;;;;;;5009901;28;20337;-46
2023/12/15 03:26:18;;;;;;;;;;;;;;;;;;5005364;28;19913;-46
2023/12/15 03:28:44;;;;;;;;;;;;;;;;;;5029552;28;19920;-46
2023/12/15 03:31:10;;;;;;;;;;;;;;;;;;5004259;28;19918;-46
2023/12/15 03:33:36;;;;;;;;;;;;;;;;;;5006104;28;19920;-46
2023/12/15 03:36:02;;;;;;;;;;;;;;;;;;5033397;28;19910;-47
2023/12/15 03:38:28;;;;;;;;;;;;;;;;;;5013586;28;19920;-45
2023/12/15 03:40:54;;;;;;;;;;;;;;;;;;5014498;28;20016;-46
2023/12/15 03:43:20;;;;;;;;;;;;;;;;;;5014940;28;19918;-45
2023/12/15 03:45:46;;;;;;;;;;;;;;;;;;5014557;28;19914;-46
2023/12/15 03:48:12;;;;;;;;;;;;;;;;;;5026756;28;19956;-46
2023/12/15 03:50:38;;;;;;;;;;;;;;;;;;5014539;28;19968;-46
2023/12/15 03:53:04;;;;;;;;;;;;;;;;;;5015266;28;20158;-45
2023/12/15 03:55:30;;;;;;;;;;;;;;;;;;5021000;28;19920;-45
2023/12/15 03:57:56;;;;;;;;;;;;;;;;;;5017573;28;20405;-46
2023/12/15 04:00:22;;;;;;;;;;;;;;;;;;5030609;28;19913;-45
2023/12/15 04:02:49;;;;;;;;;;;;;;;;;;5031323;28;19924;-45
2023/12/15 04:05:15;;;;;;;;;;;;;;;;;;5026553;28;20617;-45
2023/12/15 04:07:42;;;;;;;;;;;;;;;;;;5034038;28;19945;-45
2023/12/15 04:10:08;;;;;;;;;;;;;;;;;;5033557;28;20380;-46
2023/12/15 04:12:35;;;;;;;;;;;;;;;;;;5019160;28;19914;-45
2023/12/15 04:15:01;;;;;;;;;;;;;;;;;;5014040;28;19968;-45
2023/12/15 04:17:27;;;;;;;;;;;;;;;;;;5030055;28;20370;-44
2023/12/15 04:19:53;;;;;;;;;;;;;;;;;;5022169;28;19964;-45
2023/12/15 04:22:19;;;;;;;;;;;;;;;;;;5033608;28;19917;-45
2023/12/15 04:24:45;;;;;;;;;;;;;;;;;;5031662;28;20263;-45
2023/12/15 04:27:11;;;;;;;;;;;;;;;;;;5025402;28;20294;-46
2023/12/15 04:29:37;;;;;;;;;;;;;;;;;;5030951;28;20390;-45
2023/12/15 04:32:03;;;;;;;;;;;;;;;;;;5017430;28;19941;-47
2023/12/15 04:34:29;;;;;;;;;;;;;;;;;;5029125;28;19949;-46
2023/12/15 04:36:55;;;;;;;;;;;;;;;;;;5032358;28;19948;-48
2023/12/15 04:39:21;;;;;;;;;;;;;;;;;;5033047;28;19909;-47
2023/12/15 04:41:47;;;;;;;;;;;;;;;;;;5031248;28;19917;-47
2023/12/15 04:44:13;;;;;;;;;;;;;;;;;;5031080;28;19920;-47
2023/12/15 04:46:41;;;;;;;;;;;;;;;;;;5008440;28;19956;-47
2023/12/15 04:49:07;;;;;;;;;;;;;;;;;;5019320;28;19952;-46
2023/12/15 04:51:33;;;;;;;;;;;;;;;;;;5017707;28;19924;-43
2023/12/15 04:53:59;;;;;;;;;;;;;;;;;;5010533;28;19914;-44
2023/12/15 04:56:25;;;;;;;;;;;;;;;;;;5013767;28;20016;-47
2023/12/15 04:58:51;;;;;;;;;;;;;;;;;;5012461;28;20289;-47
2023/12/15 05:01:17;;;;;;;;;;;;;;;;;;5013134;28;20444;-47
2023/12/15 05:03:43;;;;;;;;;;;;;;;;;;5013149;28;19936;-47
2023/12/15 05:06:09;;;;;;;;;;;;;;;;;;5013484;28;19921;-47
2023/12/15 05:08:35;;;;;;;;;;;;;;;;;;5011855;28;19913;-47
2023/12/15 05:11:01;;;;;;;;;;;;;;;;;;5012927;28;19913;-47
2023/12/15 05:13:27;;;;;;;;;;;;;;;;;;5012858;28;19909;-47
2023/12/15 05:15:53;;;;;;;;;;;;;;;;;;5011794;28;20424;-47
2023/12/15 05:18:19;;;;;;;;;;;;;;;;;;5012925;28;19910;-47
2023/12/15 05:20:45;;;;;;;;;;;;;;;;;;5012839;28;19913;-47
2023/12/15 05:23:14;;;;;;;;;;;;;;;;;;5012646;28;19910;-47
2023/12/15 05:25:40;;;;;;;;;;;;;;;;;;5012808;28;20382;-47
2023/12/15 05:28:06;;;;;;;;;;;;;;;;;;5012756;28;19910;-47
2023/12/15 05:30:32;;;;;;;;;;;;;;;;;;5012558;28;19971;-47
2023/12/15 05:32:58;;;;;;;;;;;;;;;;;;5012708;28;19913;-47
2023/12/15 05:35:24;;;;;;;;;;;;;;;;;;5012885;28;19913;-49
2023/12/15 05:37:50;;;;;;;;;;;;;;;;;;5012860;28;19917;-47
2023/12/15 05:40:17;;;;;;;;;;;;;;;;;;5012508;28;19917;-48
2023/12/15 05:42:43;;;;;;;;;;;;;;;;;;5012343;28;19914;-48
2023/12/15 05:45:09;;;;;;;;;;;;;;;;;;5012623;28;19917;-46
2023/12/15 05:47:35;;;;;;;;;;;;;;;;;;5012559;28;19910;-47
2023/12/15 05:50:01;;;;;;;;;;;;;;;;;;5012384;28;19913;-48
2023/12/15 05:52:27;;;;;;;;;;;;;;;;;;5011055;28;20405;-47
2023/12/15 05:54:53;;;;;;;;;;;;;;;;;;5012409;28;20008;-47
2023/12/15 05:57:19;;;;;;;;;;;;;;;;;;5012405;28;20408;-47
2023/12/15 05:59:45;;;;;;;;;;;;;;;;;;5012496;28;19920;-47
2023/12/15 06:02:11;;;;;;;;;;;;;;;;;;5012449;28;19913;-46
2023/12/15 06:04:37;;;;;;;;;;;;;;;;;;5012388;28;19914;-47
2023/12/15 06:07:03;;;;;;;;;;;;;;;;;;5018595;28;19917;-46
2023/12/15 06:09:30;;;;;;;;;;;;;;;;;;5018750;28;19941;-47
2023/12/15 06:11:56;;;;;;;;;;;;;;;;;;5017454;28;19914;-47
2023/12/15 06:14:22;;;;;;;;;;;;;;;;;;5017448;28;19920;-47
2023/12/15 06:16:48;;;;;;;;;;;;;;;;;;5001195;28;20392;-47
2023/12/15 06:19:14;;;;;;;;;;;;;;;;;;5018691;28;19964;-47
2023/12/15 06:21:40;;;;;;;;;;;;;;;;;;5018597;28;19921;-47
2023/12/15 06:24:06;;;;;;;;;;;;;;;;;;5018551;28;19960;-47
2023/12/15 06:26:32;;;;;;;;;;;;;;;;;;5017396;28;19967;-47
2023/12/15 06:28:58;;;;;;;;;;;;;;;;;;5017459;28;20381;-47
2023/12/15 06:31:29;;;;;;;;;;;;;;;;;;5018445;28;19970;-47
2023/12/15 06:33:55;;;;;;;;;;;;;;;;;;5018496;28;20302;-47
2023/12/15 06:36:21;;;;;;;;;;;;;;;;;;5018655;28;19916;-47
2023/12/15 06:38:47;;;;;;;;;;;;;;;;;;5018610;28;19920;-47
2023/12/15 06:41:13;;;;;;;;;;;;;;;;;;5018595;28;19913;-47
2023/12/15 06:43:39;;;;;;;;;;;;;;;;;;5018439;28;19913;-47
2023/12/15 06:46:05;;;;;;;;;;;;;;;;;;5017409;28;19910;-47
2023/12/15 06:48:31;;;;;;;;;;;;;;;;;;5018533;28;20396;-47
2023/12/15 06:50:58;;;;;;;;;;;;;;;;;;5017266;28;19910;-48
2023/12/15 06:53:24;;;;;;;;;;;;;;;;;;5018294;28;19921;-48
2023/12/15 06:55:50;;;;;;;;;;;;;;;;;;5018426;28;19909;-47
2023/12/15 06:58:16;;;;;;;;;;;;;;;;;;5017345;28;19921;-47
2023/12/15 07:00:42;;;;;;;;;;;;;;;;;;5017084;28;19932;-47
2023/12/15 07:03:08;;;;;;;;;;;;;;;;;;5018162;28;19917;-48
2023/12/15 07:05:35;;;;;;;;;;;;;;;;;;5017105;28;20378;-49
2023/12/15 07:08:01;;;;;;;;;;;;;;;;;;5018313;28;19914;-47
2023/12/15 07:10:27;;;;;;;;;;;;;;;;;;5018232;28;20285;-47
2023/12/15 07:12:53;;;;;;;;;;;;;;;;;;5018222;28;19914;-47
2023/12/15 07:15:19;;;;;;;;;;;;;;;;;;5017106;28;19933;-47
2023/12/15 07:17:45;;;;;;;;;;;;;;;;;;5015195;28;19918;-47
2023/12/15 07:20:11;;;;;;;;;;;;;;;;;;5014982;28;20337;-48
2023/12/15 07:22:37;;;;;;;;;;;;;;;;;;5014910;28;19971;-47
2023/12/15 07:25:03;;;;;;;;;;;;;;;;;;5015057;28;19961;-47
2023/12/15 07:27:29;;;;;;;;;;;;;;;;;;5015042;28;19913;-47
2023/12/15 07:29:55;;;;;;;;;;;;;;;;;;5014906;28;19909;-48
2023/12/15 07:32:21;;;;;;;;;;;;;;;;;;5014595;28;19961;-48
2023/12/15 07:34:47;;;;;;;;;;;;;;;;;;5014953;28;19936;-47
2023/12/15 07:37:13;;;;;;;;;;;;;;;;;;5013523;28;19921;-47
2023/12/15 07:39:39;;;;;;;;;;;;;;;;;;5013560;28;19925;-47
2023/12/15 07:42:06;;;;;;;;;;;;;;;;;;5014751;28;19964;-47
2023/12/15 07:44:32;;;;;;;;;;;;;;;;;;5014611;28;19964;-48
2023/12/15 07:46:58;;;;;;;;;;;;;;;;;;5014629;28;19917;-47
2023/12/15 07:49:24;;;;;;;;;;;;;;;;;;5014592;28;19952;-47
2023/12/15 07:51:50;;;;;;;;;;;;;;;;;;5014545;28;19917;-47
2023/12/15 07:54:16;;;;;;;;;;;;;;;;;;5014622;28;19960;-47
2023/12/15 07:56:42;;;;;;;;;;;;;;;;;;5014965;28;20389;-47
2023/12/15 07:59:08;;;;;;;;;;;;;;;;;;5014823;28;20278;-47
2023/12/15 08:01:34;;;;;;;;;;;;;;;;;;5014291;28;19923;-47
2023/12/15 08:04:00;;;;;;;;;;;;;;;;;;5014175;28;20437;-47
2023/12/15 08:06:26;;;;;;;;;;;;;;;;;;5014835;28;19913;-47
2023/12/15 08:08:52;;;;;;;;;;;;;;;;;;5014306;28;20000;-47
2023/12/15 08:11:18;;;;;;;;;;;;;;;;;;5014269;28;20266;-48
2023/12/15 08:13:45;;;;;;;;;;;;;;;;;;5014095;28;19909;-47
2023/12/15 08:16:11;;;;;;;;;;;;;;;;;;5012787;28;20040;-47
2023/12/15 08:18:37;;;;;;;;;;;;;;;;;;5014029;28;19919;-47
2023/12/15 08:21:03;;;;;;;;;;;;;;;;;;5013800;28;19914;-48
2023/12/15 08:23:29;;;;;;;;;;;;;;;;;;5013713;28;20337;-47
2023/12/15 08:25:55;;;;;;;;;;;;;;;;;;5012821;28;19959;-47
2023/12/15 08:28:21;;;;;;;;;;;;;;;;;;5013797;28;19928;-47
2023/12/15 08:30:48;;;;;;;;;;;;;;;;;;5013824;28;19917;-48
2023/12/15 08:33:14;;;;;;;;;;;;;;;;;;5013687;28;19913;-47
2023/12/15 08:35:40;;;;;;;;;;;;;;;;;;5013799;28;19960;-48
2023/12/15 08:38:06;;;;;;;;;;;;;;;;;;5013645;28;20012;-48
2023/12/15 08:40:32;;;;;;;;;;;;;;;;;;5013613;28;19949;-47
2023/12/15 08:42:58;;;;;;;;;;;;;;;;;;5013331;28;19914;-47
2023/12/15 08:45:24;;;;;;;;;;;;;;;;;;5013546;28;19914;-48
2023/12/15 08:47:50;;;;;;;;;;;;;;;;;;5013544;28;19909;-48
2023/12/15 08:50:16;;;;;;;;;;;;;;;;;;5013325;28;19918;-47
2023/12/15 08:52:43;;;;;;;;;;;;;;;;;;5013469;28;19909;-48
2023/12/15 08:55:09;;;;;;;;;;;;;;;;;;5012113;28;19913;-47
2023/12/15 08:57:35;;;;;;;;;;;;;;;;;;5013431;28;19957;-47
2023/12/15 09:00:03;;;;;;;;;;;;;;;;;;5013161;28;19920;-47
2023/12/15 09:02:29;;;;;;;;;;;;;;;;;;5013089;28;20060;-47
2023/12/15 09:04:55;;;;;;;;;;;;;;;;;;5013291;28;19983;-47
2023/12/15 09:07:21;;;;;;;;;;;;;;;;;;5013179;28;20314;-47
2023/12/15 09:09:47;;;;;;;;;;;;;;;;;;5013182;28;19913;-47
2023/12/15 09:12:13;;;;;;;;;;;;;;;;;;5012878;28;19955;-47
2023/12/15 09:14:39;;;;;;;;;;;;;;;;;;5013359;28;20294;-47
2023/12/15 09:17:11;;;;;;;;;;;;;;;;;;5012920;28;19917;-47
2023/12/15 09:19:38;;;;;;;;;;;;;;;;;;5012965;28;19914;-47
2023/12/15 09:22:05;;;;;;;;;;;;;;;;;;5012771;28;20326;-47
2023/12/15 09:24:31;;;;;;;;;;;;;;;;;;5012798;28;19913;-47
2023/12/15 09:26:57;;;;;;;;;;;;;;;;;;5012795;28;19934;-47
2023/12/15 09:29:23;;;;;;;;;;;;;;;;;;5012801;28;19913;-51
2023/12/15 09:31:49;;;;;;;;;;;;;;;;;;5012468;28;19968;-47
2023/12/15 09:34:17;;;;;;;;;;;;;;;;;;5012586;28;19914;-47
2023/12/15 09:36:43;;;;;;;;;;;;;;;;;;5012731;28;19909;-47
2023/12/15 09:39:09;;;;;;;;;;;;;;;;;;5012672;28;19914;-47
2023/12/15 09:41:35;;;;;;;;;;;;;;;;;;5011909;28;19920;-47
2023/12/15 09:44:01;;;;;;;;;;;;;;;;;;5011289;28;19914;-47
2023/12/15 09:46:27;;;;;;;;;;;;;;;;;;5012601;28;19913;-48
2023/12/15 09:48:53;;;;;;;;;;;;;;;;;;5012635;28;19917;-47
2023/12/15 09:51:20;;;;;;;;;;;;;;;;;;5012496;28;19910;-47
2023/12/15 09:53:48;;;;;;;;;;;;;;;;;;5012322;28;20472;-47
2023/12/15 09:56:14;;;;;;;;;;;;;;;;;;5012472;28;19913;-47
2023/12/15 09:58:40;;;;;;;;;;;;;;;;;;5012420;28;19914;-47
2023/12/15 10:01:06;;;;;;;;;;;;;;;;;;5012195;28;19916;-47
2023/12/15 10:03:32;;;;;;;;;;;;;;;;;;5011114;28;19914;-47
2023/12/15 10:05:58;;;;;;;;;;;;;;;;;;5012284;28;20285;-48
2023/12/15 10:08:24;;;;;;;;;;;;;;;;;;5012358;28;20321;-48
2023/12/15 10:10:50;;;;;;;;;;;;;;;;;;5012252;28;19917;-47
2023/12/15 10:13:16;;;;;;;;;;;;;;;;;;5012115;28;19964;-47
2023/12/15 10:15:42;;;;;;;;;;;;;;;;;;5012318;28;20432;-48
2023/12/15 10:18:08;;;;;;;;;;;;;;;;;;5012275;28;20270;-48
2023/12/15 10:20:35;;;;;;;;;;;;;;;;;;5012140;28;19910;-48
2023/12/15 10:23:01;;;;;;;;;;;;;;;;;;5010734;28;19918;-47
2023/12/15 10:25:27;;;;;;;;;;;;;;;;;;5012224;28;19910;-47
2023/12/15 10:27:53;;;;;;;;;;;;;;;;;;5010885;28;20014;-48
2023/12/15 10:30:22;;;;;;;;;;;;;;;;;;5011895;28;19949;-46
2023/12/15 10:32:48;;;;;;;;;;;;;;;;;;5012057;28;19921;-48
2023/12/15 10:35:14;;;;;;;;;;;;;;;;;;5012219;28;19960;-48
2023/12/15 10:37:44;;;;;;;;;;;;;;;;;;5012048;28;19920;-48
2023/12/15 10:40:10;;;;;;;;;;;;;;;;;;5011926;28;19918;-48
2023/12/15 10:42:36;;;;;;;;;;;;;;;;;;5011739;28;19923;-48
2023/12/15 10:45:03;;;;;;;;;;;;;;;;;;5012089;28;20029;-49
2023/12/15 10:47:29;;;;;;;;;;;;;;;;;;5011973;28;20359;-47
2023/12/15 10:49:55;;;;;;;;;;;;;;;;;;5011935;28;19960;-48
2023/12/15 10:52:21;;;;;;;;;;;;;;;;;;5012324;28;19949;-47
2023/12/15 10:54:47;;;;;;;;;;;;;;;;;;5014279;28;20557;-47
2023/12/15 10:57:13;;;;;;;;;;;;;;;;;;5015519;28;20418;-48
2023/12/15 10:59:39;;;;;;;;;;;;;;;;;;5014565;28;20349;-48
2023/12/15 11:02:06;;;;;;;;;;;;;;;;;;5015688;28;19917;-47
2023/12/15 11:04:32;;;;;;;;;;;;;;;;;;5015566;28;19968;-48
2023/12/15 11:06:58;;;;;;;;;;;;;;;;;;5015365;28;19996;-48
2023/12/15 11:09:24;;;;;;;;;;;;;;;;;;5015368;28;19918;-48
2023/12/15 11:11:51;;;;;;;;;;;;;;;;;;5015279;28;20028;-47
2023/12/15 11:14:17;;;;;;;;;;;;;;;;;;5015982;28;20390;-48
2023/12/15 11:16:43;;;;;;;;;;;;;;;;;;5020916;28;19923;-48
2023/12/15 11:19:10;;;;;;;;;;;;;;;;;;5017887;28;19913;-46
2023/12/15 11:21:36;;;;;;;;;;;;;;;;;;5028359;28;20279;-46
2023/12/15 11:24:03;;;;;;;;;;;;;;;;;;5013903;28;19954;-46
2023/12/15 11:26:29;;;;;;;;;;;;;;;;;;5014893;28;19936;-47
2023/12/15 11:28:55;;;;;;;;;;;;;;;;;;5014940;28;19962;-49
2023/12/15 11:31:22;;;;;;;;;;;;;;;;;;5016256;28;21033;-47
2023/12/15 11:33:49;;;;;;;;;;;;;;;;;;5016246;28;19913;-48
2023/12/15 11:36:15;;;;;;;;;;;;;;;;;;5023774;28;19967;-49
2023/12/15 11:38:41;;;;;;;;;;;;;;;;;;5018397;28;20385;-50
2023/12/15 11:41:07;;;;;;;;;;;;;;;;;;5027984;28;19914;-47
2023/12/15 11:43:36;;;;;;;;;;;;;;;;;;5017944;28;19922;-47
2023/12/15 11:46:03;;;;;;;;;;;;;;;;;;5010840;28;20321;-47
2023/12/15 11:48:29;;;;;;;;;;;;;;;;;;5025854;28;19923;-48
2023/12/15 11:50:56;;;;;;;;;;;;;;;;;;5024193;28;20360;-47
2023/12/15 11:53:22;;;;;;;;;;;;;;;;;;5014365;28;20373;-47
2023/12/15 11:55:52;;;;;;;;;;;;;;;;;;5023344;28;20055;-47
2023/12/15 11:58:18;;;;;;;;;;;;;;;;;;5019885;28;19949;-48
2023/12/15 12:00:44;;;;;;;;;;;;;;;;;;5018531;28;19917;-49
2023/12/15 12:03:12;;;;;;;;;;;;;;;;;;5027627;28;21001;-48
2023/12/15 12:05:40;;;;;;;;;;;;;;;;;;5030768;28;19920;-48
2023/12/15 12:08:06;;;;;;;;;;;;;;;;;;5028539;28;19960;-50
2023/12/15 12:10:32;;;;;;;;;;;;;;;;;;5012602;28;19918;-49
2023/12/15 12:12:58;;;;;;;;;;;;;;;;;;5024201;28;19924;-48
2023/12/15 12:15:24;;;;;;;;;;;;;;;;;;5012865;28;19921;-48
2023/12/15 12:17:50;;;;;;;;;;;;;;;;;;5017558;28;19939;-48
2023/12/15 12:20:16;;;;;;;;;;;;;;;;;;5014977;28;19937;-49
2023/12/15 12:22:42;;;;;;;;;;;;;;;;;;5019991;28;19921;-50
2023/12/15 12:25:08;;;;;;;;;;;;;;;;;;5031030;28;19917;-49
2023/12/15 12:27:34;;;;;;;;;;;;;;;;;;5017202;28;19921;-48
2023/12/15 12:30:00;;;;;;;;;;;;;;;;;;5014486;28;19913;-49
2023/12/15 12:32:26;;;;;;;;;;;;;;;;;;5020967;28;19923;-47
2023/12/15 12:34:53;;;;;;;;;;;;;;;;;;5023021;28;19918;-48
2023/12/15 12:37:19;;;;;;;;;;;;;;;;;;5029473;28;20340;-49
2023/12/15 12:39:45;;;;;;;;;;;;;;;;;;5031363;28;20346;-48
2023/12/15 12:45:27;;;;;;;;;;;;;;;;;;5020668;28;20001;-47
2023/12/15 12:48:15;;;;;;;;;;;;;;;;;;5022410;28;19913;-48
2023/12/15 12:50:41;;;;;;;;;;;;;;;;;;5025657;28;19913;-49
2023/12/15 12:53:07;;;;;;;;;;;;;;;;;;5011692;28;20016;-49
2023/12/15 12:55:33;;;;;;;;;;;;;;;;;;5011807;28;19920;-48
2023/12/15 12:58:02;;;;;;;;;;;;;;;;;;5023677;28;19913;-48
2023/12/15 13:00:28;;;;;;;;;;;;;;;;;;5023451;28;19928;-48
2023/12/15 13:02:54;;;;;;;;;;;;;;;;;;5019689;28;19921;-49
2023/12/15 13:05:20;;;;;;;;;;;;;;;;;;5031368;28;19920;-48
2023/12/15 13:07:46;;;;;;;;;;;;;;;;;;5012092;28;20000;-48
2023/12/15 13:10:15;;;;;;;;;;;;;;;;;;5014124;28;19914;-48
2023/12/15 13:12:42;;;;;;;;;;;;;;;;;;5015137;28;19924;-48
2023/12/15 13:15:08;;;;;;;;;;;;;;;;;;5011974;28;19914;-48
2023/12/15 13:17:35;;;;;;;;;;;;;;;;;;5016022;28;20357;-48
2023/12/15 13:20:01;;;;;;;;;;;;;;;;;;5011916;28;19913;-48
2023/12/15 13:22:28;;;;;;;;;;;;;;;;;;5025906;28;19970;-54
2023/12/15 13:24:54;;;;;;;;;;;;;;;;;;5032606;28;19917;-48
2023/12/15 13:27:20;;;;;;;;;;;;;;;;;;5032650;28;19981;-48
2023/12/15 13:29:47;;;;;;;;;;;;;;;;;;5032521;28;20002;-48
2023/12/15 13:32:13;;;;;;;;;;;;;;;;;;5032149;28;19917;-48
2023/12/15 13:34:39;;;;;;;;;;;;;;;;;;5031221;28;19963;-49
2023/12/15 13:37:06;;;;;;;;;;;;;;;;;;5031305;28;19949;-49
2023/12/15 13:39:32;;;;;;;;;;;;;;;;;;5031198;28;19912;-48
2023/12/15 13:41:58;;;;;;;;;;;;;;;;;;5032506;28;19913;-48
2023/12/15 13:44:25;;;;;;;;;;;;;;;;;;5032345;28;20282;-48
2023/12/15 13:46:52;;;;;;;;;;;;;;;;;;5032350;28;19909;-48
2023/12/15 13:49:19;;;;;;;;;;;;;;;;;;5032186;28;20344;-49
2023/12/15 13:51:45;;;;;;;;;;;;;;;;;;5014478;28;19948;-48
2023/12/15 13:54:11;;;;;;;;;;;;;;;;;;5032064;28;19920;-48
2023/12/15 13:56:37;;;;;;;;;;;;;;;;;;5032258;28;19910;-48
2023/12/15 13:59:04;;;;;;;;;;;;;;;;;;5022013;28;20437;-48
2023/12/15 14:01:30;;;;;;;;;;;;;;;;;;5012243;28;19917;-48
2023/12/15 14:03:56;;;;;;;;;;;;;;;;;;5012803;28;19976;-48
2023/12/15 14:06:22;;;;;;;;;;;;;;;;;;5006876;28;20000;-49
2023/12/15 14:08:48;;;;;;;;;;;;;;;;;;5011159;28;19913;-48
2023/12/15 14:11:15;;;;;;;;;;;;;;;;;;5010828;28;19953;-48
2023/12/15 14:13:47;;;;;;;;;;;;;;;;;;5010730;28;19928;-50
2023/12/15 14:16:14;;;;;;;;;;;;;;;;;;5012052;28;19917;-48
2023/12/15 14:18:40;;;;;;;;;;;;;;;;;;5012166;28;19924;-46
2023/12/15 14:21:06;;;;;;;;;;;;;;;;;;5012068;28;19914;-47
2023/12/15 14:23:32;;;;;;;;;;;;;;;;;;5012000;28;19948;-46
2023/12/15 14:25:59;;;;;;;;;;;;;;;;;;5012362;28;19920;-47
2023/12/15 14:28:25;;;;;;;;;;;;;;;;;;5014903;28;20012;-48
2023/12/15 14:30:51;;;;;;;;;;;;;;;;;;5016022;28;19918;-46
2023/12/15 14:33:17;;;;;;;;;;;;;;;;;;5015863;28;20460;-47
2023/12/15 14:35:43;;;;;;;;;;;;;;;;;;5015992;28;19914;-47
2023/12/15 14:38:09;;;;;;;;;;;;;;;;;;5016005;28;20008;-47
2023/12/15 14:40:35;;;;;;;;;;;;;;;;;;5015871;28;20404;-47
2023/12/15 14:43:01;;;;;;;;;;;;;;;;;;5015577;28;19914;-47
2023/12/15 14:45:27;;;;;;;;;;;;;;;;;;5015803;28;19922;-47
2023/12/15 14:47:55;;;;;;;;;;;;;;;;;;5015876;28;20285;-47
2023/12/15 14:50:21;;;;;;;;;;;;;;;;;;5026122;28;20009;-47
2023/12/15 14:52:48;;;;;;;;;;;;;;;;;;5033572;28;19917;-47
2023/12/15 14:55:14;;;;;;;;;;;;;;;;;;5029994;28;19923;-47
2023/12/15 14:57:40;;;;;;;;;;;;;;;;;;5034026;28;19952;-47
2023/12/15 15:00:06;;;;;;;;;;;;;;;;;;5025962;28;19913;-47
2023/12/15 15:02:32;;;;;;;;;;;;;;;;;;5026474;28;19923;-46
2023/12/15 15:04:59;;;;;;;;;;;;;;;;;;5032336;28;19913;-45
2023/12/15 15:07:25;;;;;;;;;;;;;;;;;;5035257;28;19916;-46
2023/12/15 15:09:51;;;;;;;;;;;;;;;;;;5004012;28;19917;-47
2023/12/15 15:12:17;;;;;;;;;;;;;;;;;;5000230;28;19964;-46
2023/12/15 15:14:43;;;;;;;;;;;;;;;;;;5015280;28;19921;-47
2023/12/15 15:17:09;;;;;;;;;;;;;;;;;;5015296;28;19910;-46
2023/12/15 15:19:35;;;;;;;;;;;;;;;;;;5015226;28;20012;-46
2023/12/15 15:22:01;;;;;;;;;;;;;;;;;;5014436;28;20397;-46
2023/12/15 15:24:27;;;;;;;;;;;;;;;;;;5014725;28;20537;-47
2023/12/15 15:26:53;;;;;;;;;;;;;;;;;;5015260;28;19953;-47
2023/12/15 15:29:19;;;;;;;;;;;;;;;;;;5014924;28;19914;-47
2023/12/15 15:31:45;;;;;;;;;;;;;;;;;;5013530;28;19917;-45
2023/12/15 15:34:13;;;;;;;;;;;;;;;;;;5014822;28;20052;-46
2023/12/15 15:36:39;;;;;;;;;;;;;;;;;;5014990;28;19914;-46
2023/12/15 15:39:05;;;;;;;;;;;;;;;;;;5014129;28;19928;-48
2023/12/15 15:41:31;;;;;;;;;;;;;;;;;;5014807;28;19913;-46
2023/12/15 15:43:58;;;;;;;;;;;;;;;;;;5014596;28;20017;-46
2023/12/15 15:46:25;;;;;;;;;;;;;;;;;;5014806;28;20113;-46
2023/12/15 15:48:51;;;;;;;;;;;;;;;;;;5014751;28;19913;-47
2023/12/15 15:51:17;;;;;;;;;;;;;;;;;;5014601;28;19910;-47
2023/12/15 15:53:43;;;;;;;;;;;;;;;;;;5014467;28;19913;-47
2023/12/15 15:56:09;;;;;;;;;;;;;;;;;;5014561;28;20349;-45
2023/12/15 15:58:35;;;;;;;;;;;;;;;;;;5014432;28;19914;-47
2023/12/15 16:01:01;;;;;;;;;;;;;;;;;;4996808;28;19909;-45
2023/12/15 16:03:27;;;;;;;;;;;;;;;;;;5014222;28;20378;-46
2023/12/15 16:05:53;;;;;;;;;;;;;;;;;;5013121;28;20004;-46
2023/12/15 16:08:19;;;;;;;;;;;;;;;;;;5013076;28;20374;-47
2023/12/15 16:10:45;;;;;;;;;;;;;;;;;;5014165;28;19916;-47
2023/12/15 16:13:11;;;;;;;;;;;;;;;;;;5013880;28;20384;-46
2023/12/15 16:15:37;;;;;;;;;;;;;;;;;;5014158;28;19917;-47
2023/12/15 16:18:03;;;;;;;;;;;;;;;;;;5014105;28;19968;-46
2023/12/15 16:20:29;;;;;;;;;;;;;;;;;;5014072;28;19909;-45
2023/12/15 16:22:55;;;;;;;;;;;;;;;;;;5014017;28;20362;-47
2023/12/15 16:25:21;;;;;;;;;;;;;;;;;;5014056;28;19956;-46
2023/12/15 16:27:48;;;;;;;;;;;;;;;;;;5013840;28;20293;-45
2023/12/15 16:30:14;;;;;;;;;;;;;;;;;;5013669;28;20004;-47
2023/12/15 16:32:40;;;;;;;;;;;;;;;;;;5019889;22;19976;-47
2023/12/15 16:35:08;;;;;;;;;;;;;;;;;;5011953;28;20301;-47
2023/12/15 16:37:34;;;;;;;;;;;;;;;;;;5013750;28;20389;-47
2023/12/15 16:40:00;;;;;;;;;;;;;;;;;;5013830;28;19910;-47
2023/12/15 16:42:26;;;;;;;;;;;;;;;;;;4998271;28;19922;-47